Time;durP1;ratioP1;P1;durP2;ratioP2;P2;SDS_P1;SDS_P2;PMS_P1;PMS_P2;Temp;Humidity;BMP_temperature;BMP_pressure;BME280_temperature;BME280_humidity;BME280_pressure;Samples;Min_cycle;Max_cycle;Signal;HPM_P1;HPM_P2
2023/07/06 00:01:39;;;;;;;21.00;10.93;;;;;;;;;;5043444;28;20032;-52
2023/07/06 00:04:04;;;;;;;29.55;11.23;;;;;;;;;;5026256;28;20037;-52
2023/07/06 00:06:32;;;;;;;22.33;11.73;;;;;;;;;;5042756;28;20156;-52
2023/07/06 00:08:57;;;;;;;26.33;12.25;;;;;;;;;;5026303;28;20025;-54
2023/07/06 00:11:23;;;;;;;27.27;12.95;;;;;;;;;;5042918;28;20031;-53
2023/07/06 00:13:48;;;;;;;27.75;11.65;;;;;;;;;;5040192;28;20120;-52
2023/07/06 00:16:14;;;;;;;19.00;10.50;;;;;;;;;;5042142;28;20041;-54
2023/07/06 00:18:41;;;;;;;17.63;10.18;;;;;;;;;;5043698;28;20249;-54
2023/07/06 00:21:06;;;;;;;16.42;9.95;;;;;;;;;;5042366;28;20452;-52
2023/07/06 00:23:32;;;;;;;22.85;11.40;;;;;;;;;;5043867;28;20035;-54
2023/07/06 00:25:57;;;;;;;28.10;11.88;;;;;;;;;;5042485;28;20032;-52
2023/07/06 00:28:28;;;;;;;23.33;10.97;;;;;;;;;;5043664;28;20028;-54
2023/07/06 00:30:57;;;;;;;22.80;11.50;;;;;;;;;;5041937;28;20262;-53
2023/07/06 00:33:23;;;;;;;;;;;;;;;;;;5044546;28;20032;-54
2023/07/06 00:35:48;;;;;;;22.05;11.70;;;;;;;;;;5042971;28;19921;-52
2023/07/06 00:38:15;;;;;;;19.38;11.40;;;;;;;;;;5043893;28;20027;-51
2023/07/06 00:40:45;;;;;;;17.80;11.45;;;;;;;;;;5042515;28;20032;-51
2023/07/06 00:43:11;;;;;;;19.73;11.25;;;;;;;;;;5043689;28;20103;-52
2023/07/06 00:45:37;;;;;;;22.27;10.70;;;;;;;;;;5044118;28;20432;-54
2023/07/06 00:48:03;;;;;;;18.60;11.35;;;;;;;;;;5046081;28;20480;-54
2023/07/06 00:50:29;;;;;;;21.23;10.43;;;;;;;;;;5045899;28;20017;-52
2023/07/06 00:53:06;;;;;;;23.65;10.95;;;;;;;;;;5029243;28;20258;-55
2023/07/06 00:55:33;;;;;;;24.65;12.20;;;;;;;;;;5046876;28;20431;-50
2023/07/06 00:58:07;;;;;;;28.77;12.15;;;;;;;;;;5047154;28;20029;-50
2023/07/06 01:00:33;;;;;;;27.55;12.63;;;;;;;;;;5046065;28;20035;-51
2023/07/06 01:03:00;;;;;;;24.90;12.38;;;;;;;;;;5047394;28;20132;-53
2023/07/06 01:05:28;;;;;;;21.17;12.95;;;;;;;;;;5029635;28;20248;-53
2023/07/06 01:07:55;;;;;;;21.70;11.98;;;;;;;;;;5047029;28;20376;-55
2023/07/06 01:10:20;;;;;;;28.52;12.60;;;;;;;;;;5046124;28;20021;-53
2023/07/06 01:12:46;;;;;;;19.42;11.73;;;;;;;;;;5046539;28;20029;-54
2023/07/06 01:15:12;;;;;;;25.30;12.75;;;;;;;;;;5047815;28;20353;-51
2023/07/06 01:17:57;;;;;;;24.55;12.93;;;;;;;;;;5045854;28;20032;-53
2023/07/06 01:20:32;;;;;;;22.13;12.70;;;;;;;;;;5045990;28;20083;-52
2023/07/06 01:23:10;;;;;;;27.77;13.38;;;;;;;;;;5046533;28;20068;-51
2023/07/06 01:25:54;;;;;;;28.40;12.75;;;;;;;;;;5046079;28;20451;-53
2023/07/06 01:28:34;;;;;;;23.02;12.32;;;;;;;;;;5026943;28;20100;-53
2023/07/06 01:31:15;;;;;;;19.60;12.30;;;;;;;;;;5037654;28;20025;-52
2023/07/06 01:33:59;;;;;;;19.92;11.48;;;;;;;;;;5046845;28;20144;-53
2023/07/06 01:36:34;;;;;;;18.20;11.63;;;;;;;;;;5044801;28;20021;-52
2023/07/06 01:39:19;;;;;;;18.73;10.82;;;;;;;;;;5046801;28;20028;-52
2023/07/06 01:41:45;;;;;;;23.67;11.38;;;;;;;;;;5044325;28;20025;-53
2023/07/06 01:44:12;;;;;;;20.90;11.75;;;;;;;;;;5046249;28;20021;-53
2023/07/06 01:46:38;;;;;;;24.23;12.27;;;;;;;;;;5045124;28;20028;-53
2023/07/06 01:49:05;;;;;;;22.40;12.65;;;;;;;;;;5045791;28;20078;-53
2023/07/06 01:51:56;;;;;;;23.80;13.55;;;;;;;;;;5044150;28;20032;-53
2023/07/06 01:54:24;;;;;;;20.95;11.68;;;;;;;;;;4964549;28;20043;-57
2023/07/06 01:56:53;;;;;;;20.87;12.40;;;;;;;;;;4963190;28;20393;-53
2023/07/06 01:59:21;;;;;;;21.20;12.60;;;;;;;;;;4965101;28;20031;-54
2023/07/06 02:02:01;;;;;;;20.38;11.85;;;;;;;;;;4963637;28;20027;-54
2023/07/06 02:04:26;;;;;;;;;;;;;;;;;;4965072;28;20023;-50
2023/07/06 02:06:53;;;;;;;17.58;10.55;;;;;;;;;;4963596;28;19957;-55
2023/07/06 02:09:19;;;;;;;18.90;11.43;;;;;;;;;;4964864;28;20022;-53
2023/07/06 02:11:44;;;;;;;20.30;11.13;;;;;;;;;;4963414;28;20581;-52
2023/07/06 02:14:09;;;;;;;18.97;11.23;;;;;;;;;;4963698;28;20113;-54
2023/07/06 02:16:34;;;;;;;17.67;11.48;;;;;;;;;;4963335;28;20268;-54
2023/07/06 02:19:01;;;;;;;17.00;11.23;;;;;;;;;;4964369;28;20038;-50
2023/07/06 02:21:26;;;;;;;18.50;11.27;;;;;;;;;;4963163;28;20260;-50
2023/07/06 02:23:52;;;;;;;23.17;12.75;;;;;;;;;;4964056;28;20562;-55
2023/07/06 02:26:17;;;;;;;22.90;12.23;;;;;;;;;;4963256;28;20486;-54
2023/07/06 02:28:42;;;;;;;21.95;11.65;;;;;;;;;;4962932;28;20532;-53
2023/07/06 02:31:08;;;;;;;19.17;11.93;;;;;;;;;;5000863;28;20546;-56
2023/07/06 02:33:34;;;;;;;17.02;11.52;;;;;;;;;;5045938;28;20274;-52
2023/07/06 02:35:59;;;;;;;19.67;11.65;;;;;;;;;;5044169;28;20135;-54
2023/07/06 02:38:25;;;;;;;19.15;11.25;;;;;;;;;;5044820;28;20465;-51
2023/07/06 02:40:50;;;;;;;22.40;11.40;;;;;;;;;;5044031;28;20071;-54
2023/07/06 02:43:16;;;;;;;18.88;11.50;;;;;;;;;;5045831;28;20523;-55
2023/07/06 02:45:44;;;;;;;17.67;11.10;;;;;;;;;;5044697;28;20587;-54
2023/07/06 02:48:09;;;;;;;18.57;10.80;;;;;;;;;;5045339;28;20384;-54
2023/07/06 02:50:36;;;;;;;24.80;12.98;;;;;;;;;;5043421;28;20025;-54
2023/07/06 02:53:02;;;;;;;23.20;12.30;;;;;;;;;;5045311;28;20049;-50
2023/07/06 02:55:27;;;;;;;24.65;11.10;;;;;;;;;;5044357;28;20452;-52
2023/07/06 02:57:53;;;;;;;19.58;11.95;;;;;;;;;;5045233;28;20060;-55
2023/07/06 03:00:18;;;;;;;22.00;11.93;;;;;;;;;;5044466;28;20033;-53
2023/07/06 03:02:43;;;;;;;20.98;12.48;;;;;;;;;;5044265;28;21235;-54
2023/07/06 03:05:10;;;;;;;22.48;10.95;;;;;;;;;;5044370;28;20029;-54
2023/07/06 03:07:35;;;;;;;20.80;12.45;;;;;;;;;;5043910;28;20090;-50
2023/07/06 03:10:04;;;;;;;21.85;11.80;;;;;;;;;;5045125;28;20036;-54
2023/07/06 03:12:33;;;;;;;23.17;11.98;;;;;;;;;;5044397;28;20519;-51
2023/07/06 03:14:59;;;;;;;22.52;12.98;;;;;;;;;;5045528;28;20036;-55
2023/07/06 03:17:24;;;;;;;19.35;10.98;;;;;;;;;;5044111;28;20029;-50
2023/07/06 03:19:51;;;;;;;20.97;11.90;;;;;;;;;;5044341;28;20045;-50
2023/07/06 03:22:17;;;;;;;22.45;11.52;;;;;;;;;;5044940;28;20266;-52
2023/07/06 03:24:42;;;;;;;23.17;13.00;;;;;;;;;;5044590;28;20017;-52
2023/07/06 03:27:08;;;;;;;21.92;11.80;;;;;;;;;;5044387;28;20052;-53
2023/07/06 03:29:35;;;;;;;24.92;13.77;;;;;;;;;;5044032;28;20401;-50
2023/07/06 03:32:00;;;;;;;21.45;11.75;;;;;;;;;;5043418;28;20024;-57
2023/07/06 03:34:27;;;;;;;19.80;12.10;;;;;;;;;;5044726;28;20021;-53
2023/07/06 03:36:52;;;;;;;20.27;11.15;;;;;;;;;;5025384;28;20354;-51
2023/07/06 03:39:17;;;;;;;17.55;10.88;;;;;;;;;;5044520;28;20032;-55
2023/07/06 03:41:43;;;;;;;21.33;12.50;;;;;;;;;;5043465;28;20463;-54
2023/07/06 03:44:09;;;;;;;20.13;11.27;;;;;;;;;;5044553;28;20109;-55
2023/07/06 03:46:36;;;;;;;20.35;11.63;;;;;;;;;;5041455;28;20519;-54
2023/07/06 03:49:03;;;;;;;20.77;11.75;;;;;;;;;;5041181;28;20035;-50
2023/07/06 03:51:28;;;;;;;27.27;11.85;;;;;;;;;;5043027;28;20423;-54
2023/07/06 03:53:55;;;;;;;22.98;11.70;;;;;;;;;;5043805;28;20097;-56
2023/07/06 03:56:27;;;;;;;23.08;11.20;;;;;;;;;;5043288;28;20021;-54
2023/07/06 03:58:54;;;;;;;21.98;11.18;;;;;;;;;;5044392;28;20230;-54
2023/07/06 04:01:19;;;;;;;18.55;11.15;;;;;;;;;;5044203;28;20028;-53
2023/07/06 04:03:45;;;;;;;17.42;9.80;;;;;;;;;;5043766;28;20107;-54
2023/07/06 04:06:10;;;;;;;19.98;10.35;;;;;;;;;;5044542;28;20476;-53
2023/07/06 04:08:36;;;;;;;15.02;9.27;;;;;;;;;;5044007;28;20024;-54
2023/07/06 04:11:01;;;;;;;18.60;10.30;;;;;;;;;;5044293;28;20017;-56
2023/07/06 04:13:26;;;;;;;18.60;10.35;;;;;;;;;;5007186;28;20640;-56
2023/07/06 04:15:52;;;;;;;16.17;9.83;;;;;;;;;;5042316;28;20032;-54
2023/07/06 04:18:17;;;;;;;18.23;10.45;;;;;;;;;;5026032;28;20323;-52
2023/07/06 04:20:42;;;;;;;19.10;10.40;;;;;;;;;;5042595;28;20071;-56
2023/07/06 04:23:10;;;;;;;18.73;10.95;;;;;;;;;;5044306;28;20032;-51
2023/07/06 04:25:36;;;;;;;23.77;9.73;;;;;;;;;;5042789;28;20032;-53
2023/07/06 04:28:03;;;;;;;15.43;9.57;;;;;;;;;;5043845;28;20029;-56
2023/07/06 04:30:33;;;;;;;15.32;9.30;;;;;;;;;;5041799;28;20020;-54
2023/07/06 04:32:59;;;;;;;18.00;9.18;;;;;;;;;;5043603;28;20036;-56
2023/07/06 04:35:24;;;;;;;18.80;9.27;;;;;;;;;;5043716;28;20013;-53
2023/07/06 04:37:50;;;;;;;17.98;9.40;;;;;;;;;;5042710;28;20526;-56
2023/07/06 04:40:19;;;;;;;23.63;8.63;;;;;;;;;;5043304;28;20551;-55
2023/07/06 04:42:46;;;;;;;16.23;8.27;;;;;;;;;;5042455;28;20033;-53
2023/07/06 04:45:12;;;;;;;16.52;9.07;;;;;;;;;;5044265;28;20090;-53
2023/07/06 04:47:38;;;;;;;12.73;7.53;;;;;;;;;;5043392;28;20025;-53
2023/07/06 04:50:04;;;;;;;17.27;7.57;;;;;;;;;;5043626;28;20100;-52
2023/07/06 04:52:31;;;;;;;14.77;8.65;;;;;;;;;;5043228;28;20127;-51
2023/07/06 04:54:58;;;;;;;14.93;8.15;;;;;;;;;;5043538;28;20118;-54
2023/07/06 04:57:23;;;;;;;15.23;7.70;;;;;;;;;;5042641;28;20048;-56
2023/07/06 04:59:49;;;;;;;14.57;7.20;;;;;;;;;;5043513;28;20098;-51
2023/07/06 05:02:14;;;;;;;11.63;6.40;;;;;;;;;;5042692;28;20025;-56
2023/07/06 05:04:40;;;;;;;18.50;7.55;;;;;;;;;;5007879;28;20278;-54
2023/07/06 05:07:06;;;;;;;12.30;5.97;;;;;;;;;;5042431;28;20427;-56
2023/07/06 05:09:32;;;;;;;10.15;5.68;;;;;;;;;;5043262;28;20028;-52
2023/07/06 05:11:57;;;;;;;8.68;5.10;;;;;;;;;;5042113;28;20048;-55
2023/07/06 05:14:23;;;;;;;10.35;4.53;;;;;;;;;;5043513;28;20044;-52
2023/07/06 05:16:48;;;;;;;11.32;4.40;;;;;;;;;;5042352;28;20025;-54
2023/07/06 05:19:15;;;;;;;8.37;4.20;;;;;;;;;;5041328;28;20043;-56
2023/07/06 05:21:40;;;;;;;8.77;3.92;;;;;;;;;;5043158;28;20739;-53
2023/07/06 05:24:06;;;;;;;10.85;3.70;;;;;;;;;;5043295;28;20057;-52
2023/07/06 05:26:31;;;;;;;10.80;4.03;;;;;;;;;;5043236;28;20035;-54
2023/07/06 05:28:56;;;;;;;7.83;3.57;;;;;;;;;;5007628;28;20707;-54
2023/07/06 05:31:21;;;;;;;8.07;3.03;;;;;;;;;;5043736;28;20269;-59
2023/07/06 05:33:47;;;;;;;8.47;3.33;;;;;;;;;;5046152;28;20626;-52
2023/07/06 05:36:12;;;;;;;8.75;2.92;;;;;;;;;;5045812;28;20353;-54
2023/07/06 05:38:37;;;;;;;11.77;3.50;;;;;;;;;;5008431;28;20029;-55
2023/07/06 05:41:03;;;;;;;5.63;2.93;;;;;;;;;;5045487;28;20320;-54
2023/07/06 05:43:28;;;;;;;7.65;2.95;;;;;;;;;;5046755;28;20253;-54
2023/07/06 05:45:54;;;;;;;11.98;3.47;;;;;;;;;;5044051;28;20031;-51
2023/07/06 05:48:19;;;;;;;11.05;3.58;;;;;;;;;;5045470;28;20025;-54
2023/07/06 05:50:45;;;;;;;9.40;3.25;;;;;;;;;;5044343;28;20613;-54
2023/07/06 05:53:10;;;;;;;7.22;3.13;;;;;;;;;;5043872;28;20475;-53
2023/07/06 05:55:35;;;;;;;9.35;3.85;;;;;;;;;;5043442;28;20140;-54
2023/07/06 05:58:02;;;;;;;9.07;3.43;;;;;;;;;;5046504;28;20017;-56
2023/07/06 06:00:28;;;;;;;9.23;3.50;;;;;;;;;;5041273;28;20281;-55
2023/07/06 06:02:54;;;;;;;10.63;4.15;;;;;;;;;;5039966;28;20024;-55
2023/07/06 06:05:19;;;;;;;11.07;3.70;;;;;;;;;;5043956;28;20025;-52
2023/07/06 06:07:44;;;;;;;20.10;4.60;;;;;;;;;;5043814;28;20352;-53
2023/07/06 06:10:10;;;;;;;11.43;4.25;;;;;;;;;;5043010;28;20104;-55
2023/07/06 06:12:36;;;;;;;800.38;557.75;;;;;;;;;;5042769;28;20135;-52
2023/07/06 06:15:02;;;;;;;833.20;552.55;;;;;;;;;;5042580;28;20112;-55
2023/07/06 06:17:28;;;;;;;861.17;599.13;;;;;;;;;;5035505;28;20036;-50
2023/07/06 06:19:53;;;;;;;843.15;565.67;;;;;;;;;;5044922;28;20025;-54
2023/07/06 06:22:19;;;;;;;855.70;578.42;;;;;;;;;;5040513;28;20031;-55
2023/07/06 06:24:45;;;;;;;833.38;551.47;;;;;;;;;;5043329;28;20115;-52
2023/07/06 06:27:11;;;;;;;845.30;567.25;;;;;;;;;;5042750;28;20109;-52
2023/07/06 06:29:37;;;;;;;836.58;557.78;;;;;;;;;;5044206;28;20496;-53
2023/07/06 06:32:03;;;;;;;839.08;563.17;;;;;;;;;;5039888;28;20009;-54
2023/07/06 06:34:28;;;;;;;845.55;572.78;;;;;;;;;;5042257;28;20017;-51
2023/07/06 06:36:54;;;;;;;838.20;556.55;;;;;;;;;;5043871;28;20448;-50
2023/07/06 06:39:20;;;;;;;830.05;557.20;;;;;;;;;;5040352;28;20096;-52
2023/07/06 06:41:46;;;;;;;845.78;570.17;;;;;;;;;;5030705;28;20116;-51
2023/07/06 06:44:12;;;;;;;813.70;500.55;;;;;;;;;;5042438;28;20017;-53
2023/07/06 06:46:37;;;;;;;836.17;530.17;;;;;;;;;;5039075;28;20025;-51
2023/07/06 06:49:03;;;;;;;832.03;493.90;;;;;;;;;;5039058;28;20023;-55
2023/07/06 06:51:29;;;;;;;854.65;544.50;;;;;;;;;;5037359;28;20083;-51
2023/07/06 06:53:54;;;;;;;853.75;553.90;;;;;;;;;;5043656;28;20028;-52
2023/07/06 06:56:22;;;;;;;848.30;568.30;;;;;;;;;;5035307;28;20061;-49
2023/07/06 06:58:47;;;;;;;827.30;524.17;;;;;;;;;;5033069;28;20048;-53
2023/07/06 07:01:13;;;;;;;828.55;549.97;;;;;;;;;;5035598;28;20059;-55
2023/07/06 07:03:39;;;;;;;830.38;547.35;;;;;;;;;;5040618;28;20404;-49
2023/07/06 07:06:12;;;;;;;859.97;576.75;;;;;;;;;;5026295;28;20090;-53
2023/07/06 07:08:39;;;;;;;863.25;589.28;;;;;;;;;;5038867;28;20025;-55
2023/07/06 07:11:04;;;;;;;869.10;629.78;;;;;;;;;;5040649;28;20012;-53
2023/07/06 07:13:30;;;;;;;867.35;640.05;;;;;;;;;;5039520;28;20036;-55
2023/07/06 07:15:55;;;;;;;870.38;650.72;;;;;;;;;;5044000;28;20480;-53
2023/07/06 07:18:23;;;;;;;857.33;625.53;;;;;;;;;;5044134;28;20583;-55
2023/07/06 07:20:49;;;;;;;876.45;642.80;;;;;;;;;;5042052;28;20026;-55
2023/07/06 07:23:15;;;;;;;860.55;611.25;;;;;;;;;;5042739;28;20036;-54
2023/07/06 07:25:41;;;;;;;891.97;661.65;;;;;;;;;;5036198;28;20032;-53
2023/07/06 07:28:06;;;;;;;829.80;560.45;;;;;;;;;;5036890;28;20028;-55
2023/07/06 07:30:31;;;;;;;864.90;657.10;;;;;;;;;;4988954;28;20135;-51
2023/07/06 07:32:57;;;;;;;837.95;592.05;;;;;;;;;;5042467;28;20036;-55
2023/07/06 07:35:23;;;;;;;835.00;591.00;;;;;;;;;;5045490;28;20020;-53
2023/07/06 07:37:50;;;;;;;835.47;590.03;;;;;;;;;;5036959;28;20033;-52
2023/07/06 07:40:17;;;;;;;863.05;643.67;;;;;;;;;;5040297;28;20103;-52
2023/07/06 07:43:02;;;;;;;878.63;688.97;;;;;;;;;;5039256;28;20028;-54
2023/07/06 07:45:28;;;;;;;898.70;718.45;;;;;;;;;;4996430;28;20030;-55
2023/07/06 07:47:55;;;;;;;927.63;755.83;;;;;;;;;;4995503;28;20398;-55
2023/07/06 07:50:21;;;;;;;918.20;759.17;;;;;;;;;;5000423;28;20022;-56
2023/07/06 07:52:48;;;;;;;915.85;764.58;;;;;;;;;;5004475;28;20041;-55
2023/07/06 07:55:14;;;;;;;921.55;780.50;;;;;;;;;;5000532;28;20045;-54
2023/07/06 07:57:39;;;;;;;954.17;812.88;;;;;;;;;;4985253;28;20025;-53
2023/07/06 08:00:07;;;;;;;944.58;813.33;;;;;;;;;;5006943;28;20086;-53
2023/07/06 08:02:32;;;;;;;953.08;819.20;;;;;;;;;;4991661;28;20189;-55
2023/07/06 08:05:01;;;;;;;950.42;812.60;;;;;;;;;;4995752;28;20174;-55
2023/07/06 08:07:27;;;;;;;938.15;804.92;;;;;;;;;;4980728;28;20149;-52
2023/07/06 08:09:52;;;;;;;952.95;810.92;;;;;;;;;;4996347;28;20030;-56
2023/07/06 08:12:20;;;;;;;945.45;817.80;;;;;;;;;;4998408;28;20046;-53
2023/07/06 08:14:45;;;;;;;929.90;798.75;;;;;;;;;;4997698;28;20176;-56
2023/07/06 08:17:10;;;;;;;942.35;811.70;;;;;;;;;;4995764;28;20036;-50
2023/07/06 08:19:36;;;;;;;867.55;714.67;;;;;;;;;;5040308;28;20024;-54
2023/07/06 08:22:03;;;;;;;895.33;749.47;;;;;;;;;;5039082;28;20029;-57
2023/07/06 08:24:29;;;;;;;899.38;729.85;;;;;;;;;;5048017;28;20024;-54
2023/07/06 08:26:54;;;;;;;743.42;623.15;;;;;;;;;;5037741;28;21182;-54
2023/07/06 08:29:19;;;;;;;885.20;718.25;;;;;;;;;;5041092;28;20025;-54
2023/07/06 08:31:45;;;;;;;907.67;754.72;;;;;;;;;;5041186;28;20413;-53
2023/07/06 08:34:12;;;;;;;897.95;760.78;;;;;;;;;;5042931;28;20538;-54
2023/07/06 08:36:37;;;;;;;894.50;738.40;;;;;;;;;;5042978;28;20052;-55
2023/07/06 08:39:05;;;;;;;899.20;765.47;;;;;;;;;;5039434;28;20599;-53
2023/07/06 08:41:33;;;;;;;909.97;780.90;;;;;;;;;;5041207;28;20057;-54
2023/07/06 08:44:02;;;;;;;917.73;792.63;;;;;;;;;;5039240;28;20042;-54
2023/07/06 08:46:28;;;;;;;;;;;;;;;;;;5038859;28;20609;-55
2023/07/06 08:48:54;;;;;;;922.28;811.88;;;;;;;;;;5036589;28;19908;-49
2023/07/06 08:51:34;;;;;;;942.20;833.47;;;;;;;;;;5037275;28;20040;-53
2023/07/06 08:54:17;;;;;;;960.08;854.88;;;;;;;;;;5038647;28;20049;-56
2023/07/06 08:56:42;;;;;;;970.88;864.97;;;;;;;;;;5040006;28;20029;-57
2023/07/06 08:59:14;;;;;;;986.80;879.10;;;;;;;;;;5037753;28;20073;-55
2023/07/06 09:01:41;;;;;;;968.22;861.70;;;;;;;;;;5037981;28;20547;-51
2023/07/06 09:04:14;;;;;;;995.45;887.33;;;;;;;;;;5042996;28;20031;-52
2023/07/06 09:06:43;;;;;;;997.92;889.47;;;;;;;;;;5022499;28;20063;-53
2023/07/06 09:09:09;;;;;;;1000.88;892.72;;;;;;;;;;5039975;28;20479;-54
2023/07/06 09:11:34;;;;;;;1006.88;898.45;;;;;;;;;;5041234;28;20045;-54
2023/07/06 09:14:05;;;;;;;998.20;889.90;;;;;;;;;;5039841;28;20065;-54
2023/07/06 09:16:33;;;;;;;998.42;891.17;;;;;;;;;;5022990;28;20033;-51
2023/07/06 09:19:06;;;;;;;987.47;866.17;;;;;;;;;;5042891;28;20032;-53
2023/07/06 09:21:32;;;;;;;975.42;868.58;;;;;;;;;;5030114;28;20748;-55
2023/07/06 09:23:57;;;;;;;993.45;886.08;;;;;;;;;;5033386;28;20108;-54
2023/07/06 09:26:27;;;;;;;1003.92;895.63;;;;;;;;;;5043331;28;20028;-54
2023/07/06 09:29:09;;;;;;;1003.88;895.08;;;;;;;;;;5043427;28;20428;-56
2023/07/06 09:31:36;;;;;;;1004.15;896.08;;;;;;;;;;5046601;28;20021;-54
2023/07/06 09:34:04;;;;;;;1001.90;893.17;;;;;;;;;;5046777;28;20057;-54
2023/07/06 09:36:29;;;;;;;1019.03;909.37;;;;;;;;;;5046669;28;20029;-54
2023/07/06 09:39:00;;;;;;;1024.88;915.15;;;;;;;;;;5047056;28;20480;-55
2023/07/06 09:41:26;;;;;;;1026.75;917.10;;;;;;;;;;5041882;28;20021;-51
2023/07/06 09:43:53;;;;;;;1043.30;932.92;;;;;;;;;;5043974;28;20055;-55
2023/07/06 09:46:19;;;;;;;1029.80;919.92;;;;;;;;;;5046841;28;20100;-53
2023/07/06 09:48:44;;;;;;;1028.95;919.28;;;;;;;;;;5040512;28;20544;-53
2023/07/06 09:51:15;;;;;;;1031.70;921.87;;;;;;;;;;5043919;28;20364;-56
2023/07/06 09:53:58;;;;;;;1025.85;916.30;;;;;;;;;;5046155;28;20288;-53
2023/07/06 09:56:24;;;;;;;1026.65;917.13;;;;;;;;;;5045181;28;20086;-51
2023/07/06 09:58:51;;;;;;;1015.17;906.13;;;;;;;;;;5046745;28;20452;-53
2023/07/06 10:01:38;;;;;;;1002.55;893.92;;;;;;;;;;5046307;28;20050;-55
2023/07/06 10:04:11;;;;;;;1014.97;905.72;;;;;;;;;;5046477;28;20412;-55
2023/07/06 10:06:37;;;;;;;1020.03;911.08;;;;;;;;;;5046166;28;20017;-53
2023/07/06 10:09:08;;;;;;;1004.93;896.67;;;;;;;;;;5040048;28;20516;-51
2023/07/06 10:11:53;;;;;;;1021.38;912.22;;;;;;;;;;5046232;28;20078;-50
2023/07/06 10:14:20;;;;;;;1024.75;916.00;;;;;;;;;;5046223;28;20123;-55
2023/07/06 10:16:46;;;;;;;1016.25;906.95;;;;;;;;;;5050475;28;20032;-50
2023/07/06 10:19:11;;;;;;;1011.15;902.38;;;;;;;;;;5045513;28;20028;-50
2023/07/06 10:21:45;;;;;;;997.50;889.78;;;;;;;;;;5045556;28;20025;-53
2023/07/06 10:24:20;;;;;;;1013.67;904.95;;;;;;;;;;5045486;28;20159;-52
2023/07/06 10:26:49;;;;;;;1010.58;902.15;;;;;;;;;;5042087;28;20036;-55
2023/07/06 10:29:17;;;;;;;1009.67;900.90;;;;;;;;;;5027562;28;20457;-52
2023/07/06 10:31:46;;;;;;;1012.10;903.05;;;;;;;;;;5044334;28;20021;-55
2023/07/06 10:34:15;;;;;;;1017.00;907.28;;;;;;;;;;5045650;28;20037;-56
2023/07/06 10:36:41;;;;;;;1017.15;907.25;;;;;;;;;;5038570;28;20056;-53
2023/07/06 10:39:27;;;;;;;1051.57;939.38;;;;;;;;;;5039549;28;20029;-52
2023/07/06 10:42:00;;;;;;;1036.68;926.13;;;;;;;;;;4947990;28;20046;-52
2023/07/06 10:44:40;;;;;;;1031.90;922.30;;;;;;;;;;4960668;28;20038;-54
2023/07/06 10:47:06;;;;;;;1042.05;931.63;;;;;;;;;;4955891;28;20484;-56
2023/07/06 10:49:31;;;;;;;1068.10;955.00;;;;;;;;;;4959915;28;20035;-53
2023/07/06 10:51:57;;;;;;;1063.30;951.70;;;;;;;;;;4960042;28;20431;-55
2023/07/06 10:54:24;;;;;;;1066.03;952.95;;;;;;;;;;4960373;28;20641;-53
2023/07/06 10:57:01;;;;;;;1065.93;953.00;;;;;;;;;;4960429;28;20616;-54
2023/07/06 10:59:37;;;;;;;1070.25;958.10;;;;;;;;;;4961398;28;20039;-54
2023/07/06 11:02:17;;;;;;;1073.97;962.08;;;;;;;;;;4963221;28;20110;-55
2023/07/06 11:04:51;;;;;;;1076.90;965.03;;;;;;;;;;4960275;28;20083;-52
2023/07/06 11:07:35;;;;;;;1083.68;971.00;;;;;;;;;;4963509;28;20034;-56
2023/07/06 11:10:13;;;;;;;1078.40;966.17;;;;;;;;;;4963364;28;20026;-54
2023/07/06 11:12:54;;;;;;;1083.47;971.17;;;;;;;;;;4956100;28;20341;-55
2023/07/06 11:15:23;;;;;;;1093.18;980.13;;;;;;;;;;4960387;28;20416;-57
2023/07/06 11:17:50;;;;;;;1085.57;973.10;;;;;;;;;;4962956;28;20046;-51
2023/07/06 11:20:18;;;;;;;1079.95;968.17;;;;;;;;;;5007406;28;20025;-56
2023/07/06 11:22:46;;;;;;;1086.88;974.42;;;;;;;;;;5040360;28;20055;-55
2023/07/06 11:25:12;;;;;;;1081.97;970.38;;;;;;;;;;5044576;28;20142;-54
2023/07/06 11:27:43;;;;;;;1075.50;963.95;;;;;;;;;;5044109;28;20499;-55
2023/07/06 11:30:28;;;;;;;1058.93;948.28;;;;;;;;;;5043811;28;20057;-54
2023/07/06 11:33:00;;;;;;;1075.38;963.25;;;;;;;;;;5039368;28;20028;-56
2023/07/06 11:35:28;;;;;;;1066.82;955.60;;;;;;;;;;5042887;28;20461;-52
2023/07/06 11:38:12;;;;;;;1068.88;958.10;;;;;;;;;;5044191;28;20024;-52
2023/07/06 11:40:46;;;;;;;1077.38;965.97;;;;;;;;;;5037592;28;20384;-55
2023/07/06 11:43:18;;;;;;;1076.03;964.20;;;;;;;;;;5036388;28;20111;-55
2023/07/06 11:45:43;;;;;;;1074.97;962.90;;;;;;;;;;5041003;28;20021;-55
2023/07/06 11:48:19;;;;;;;1079.47;967.87;;;;;;;;;;5040961;28;20029;-52
2023/07/06 11:50:46;;;;;;;1085.18;972.25;;;;;;;;;;5033917;28;20284;-53
2023/07/06 11:56:19;;;;;;;1080.30;968.42;;;;;;;;;;4956813;28;20081;-56
2023/07/06 12:01:20;;;;;;;1065.68;954.63;;;;;;;;;;4957409;28;20382;-54
2023/07/06 12:03:47;;;;;;;1078.78;966.78;;;;;;;;;;4958026;28;20022;-56
2023/07/06 12:06:14;;;;;;;1067.80;956.20;;;;;;;;;;4953175;28;20086;-54
2023/07/06 12:08:40;;;;;;;1065.88;954.25;;;;;;;;;;4958603;28;20031;-50
2023/07/06 12:11:07;;;;;;;1079.93;968.00;;;;;;;;;;4959148;28;20027;-49
2023/07/06 12:13:34;;;;;;;1074.35;962.70;;;;;;;;;;4953826;28;20047;-53
2023/07/06 12:16:03;;;;;;;1057.78;947.60;;;;;;;;;;4960229;28;20477;-54
2023/07/06 12:18:28;;;;;;;1079.50;968.28;;;;;;;;;;4961135;28;20278;-56
2023/07/06 12:20:54;;;;;;;1057.78;947.28;;;;;;;;;;4961232;28;20164;-53
2023/07/06 12:23:21;;;;;;;1055.82;945.60;;;;;;;;;;4961843;28;20153;-55
2023/07/06 12:25:46;;;;;;;1060.13;949.92;;;;;;;;;;4941801;28;20038;-53
2023/07/06 12:28:15;;;;;;;1049.80;940.15;;;;;;;;;;4958140;28;20026;-55
2023/07/06 12:30:40;;;;;;;1052.13;942.28;;;;;;;;;;4958101;28;20117;-52
2023/07/06 12:33:08;;;;;;;1072.72;960.97;;;;;;;;;;5006468;28;20131;-51
2023/07/06 12:35:34;;;;;;;1071.30;959.63;;;;;;;;;;5043504;28;20025;-55
2023/07/06 12:38:02;;;;;;;1078.13;966.33;;;;;;;;;;5039598;28;20078;-52
2023/07/06 12:40:31;;;;;;;1053.25;943.10;;;;;;;;;;5039890;28;20021;-53
2023/07/06 12:42:56;;;;;;;1079.68;968.30;;;;;;;;;;5042319;28;20036;-50
2023/07/06 12:45:22;;;;;;;1072.45;961.95;;;;;;;;;;5046944;28;20439;-53
2023/07/06 12:47:55;;;;;;;1055.60;945.38;;;;;;;;;;5044446;28;20021;-55
2023/07/06 12:50:26;;;;;;;1074.65;963.50;;;;;;;;;;5043670;28;20021;-52
2023/07/06 12:53:00;;;;;;;1067.45;956.85;;;;;;;;;;5045337;28;20110;-56
2023/07/06 12:55:31;;;;;;;1062.43;952.35;;;;;;;;;;5039027;28;20492;-53
2023/07/06 12:57:56;;;;;;;1047.68;936.90;;;;;;;;;;5041908;28;20017;-52
2023/07/06 13:00:23;;;;;;;1029.72;920.22;;;;;;;;;;5048813;28;20017;-52
2023/07/06 13:02:56;;;;;;;1042.60;932.53;;;;;;;;;;4995717;28;20440;-53
2023/07/06 13:05:23;;;;;;;1062.07;951.25;;;;;;;;;;5027956;28;20017;-51
2023/07/06 13:07:50;;;;;;;1062.40;951.38;;;;;;;;;;5046648;28;20037;-52
2023/07/06 13:10:16;;;;;;;1052.45;942.45;;;;;;;;;;5046147;28;20021;-53
2023/07/06 13:12:42;;;;;;;1051.90;941.95;;;;;;;;;;5045986;28;20084;-52
2023/07/06 13:15:13;;;;;;;1063.28;952.78;;;;;;;;;;5047334;28;20446;-53
2023/07/06 13:17:39;;;;;;;1058.65;948.60;;;;;;;;;;5047448;28;20041;-54
2023/07/06 13:20:07;;;;;;;1034.40;924.67;;;;;;;;;;5045618;28;20113;-53
2023/07/06 13:22:32;;;;;;;1033.68;924.05;;;;;;;;;;5041285;28;20361;-53
2023/07/06 13:24:59;;;;;;;1038.82;929.17;;;;;;;;;;5043018;28;20103;-55
2023/07/06 13:27:24;;;;;;;1047.43;938.30;;;;;;;;;;5045501;28;20037;-55
2023/07/06 13:29:50;;;;;;;1029.80;921.65;;;;;;;;;;5044432;28;20075;-52
2023/07/06 13:32:16;;;;;;;1035.53;926.78;;;;;;;;;;5039316;28;20021;-54
2023/07/06 13:34:42;;;;;;;1026.00;918.08;;;;;;;;;;5041824;28;20083;-50
2023/07/06 13:37:12;;;;;;;1049.72;940.33;;;;;;;;;;5044964;28;20017;-55
2023/07/06 13:39:37;;;;;;;1007.30;899.95;;;;;;;;;;5044250;28;20495;-53
2023/07/06 13:42:03;;;;;;;1049.23;940.10;;;;;;;;;;5043644;28;20013;-55
2023/07/06 13:44:28;;;;;;;1028.20;919.33;;;;;;;;;;5041517;28;20338;-53
2023/07/06 13:46:55;;;;;;;1035.43;925.45;;;;;;;;;;5008459;28;20033;-54
2023/07/06 13:49:20;;;;;;;1039.70;929.45;;;;;;;;;;5044232;28;20024;-52
2023/07/06 13:51:46;;;;;;;1020.80;911.50;;;;;;;;;;5046079;28;20017;-52
2023/07/06 13:54:12;;;;;;;1036.35;926.22;;;;;;;;;;5044150;28;20399;-54
2023/07/06 13:56:38;;;;;;;1034.45;925.08;;;;;;;;;;5044819;28;20013;-55
2023/07/06 13:59:03;;;;;;;1039.45;929.85;;;;;;;;;;5044909;28;20052;-51
2023/07/06 14:01:28;;;;;;;1025.53;916.80;;;;;;;;;;5046461;28;20396;-53
2023/07/06 14:03:55;;;;;;;1026.13;918.10;;;;;;;;;;5042549;28;20258;-48
2023/07/06 14:06:20;;;;;;;1042.38;933.80;;;;;;;;;;5041360;28;20286;-52
2023/07/06 14:08:45;;;;;;;1034.60;924.70;;;;;;;;;;5042725;28;20063;-54
2023/07/06 14:11:11;;;;;;;1051.55;941.67;;;;;;;;;;5038820;28;20086;-49